sensor_id;sensor_type;location;lat;lon;timestamp;pressure;altitude;pressure_sealevel;temperature;humidity
5996;BME280;3026;53.612;7.278;2024-03-06T00:00:30;101957.47;;;4.77;100.00
5996;BME280;3026;53.612;7.278;2024-03-06T00:02:58;101956.59;;;4.76;100.00
5996;BME280;3026;53.612;7.278;2024-03-06T00:05:26;101968.16;;;4.78;100.00
5996;BME280;3026;53.612;7.278;2024-03-06T00:07:53;101957.47;;;4.77;100.00
5996;BME280;3026;53.612;7.278;2024-03-06T00:10:20;101962.00;;;4.76;100.00
5996;BME280;3026;53.612;7.278;2024-03-06T00:12:49;101963.84;;;4.76;100.00
5996;BME280;3026;53.612;7.278;2024-03-06T00:15:16;101961.13;;;4.76;100.00
5996;BME280;3026;53.612;7.278;2024-03-06T00:17:45;101969.25;;;4.76;100.00
5996;BME280;3026;53.612;7.278;2024-03-06T00:20:12;101966.53;;;4.76;100.00
5996;BME280;3026;53.612;7.278;2024-03-06T00:22:40;101970.00;;;4.78;100.00
5996;BME280;3026;53.612;7.278;2024-03-06T00:25:07;101967.28;;;4.78;100.00
5996;BME280;3026;53.612;7.278;2024-03-06T00:27:35;101979.06;;;4.77;100.00
5996;BME280;3026;53.612;7.278;2024-03-06T00:30:02;101974.53;;;4.77;100.00
5996;BME280;3026;53.612;7.278;2024-03-06T00:32:29;101979.06;;;4.77;100.00
5996;BME280;3026;53.612;7.278;2024-03-06T00:34:58;101982.75;;;4.76;100.00
5996;BME280;3026;53.612;7.278;2024-03-06T00:37:25;101980.91;;;4.76;100.00
5996;BME280;3026;53.612;7.278;2024-03-06T00:39:52;101973.66;;;4.77;100.00
5996;BME280;3026;53.612;7.278;2024-03-06T00:42:20;101986.31;;;4.76;100.00
5996;BME280;3026;53.612;7.278;2024-03-06T00:44:47;101992.59;;;4.77;100.00
5996;BME280;3026;53.612;7.278;2024-03-06T00:47:14;101999.72;;;4.78;100.00
5996;BME280;3026;53.612;7.278;2024-03-06T00:49:41;101995.28;;;4.77;100.00
5996;BME280;3026;53.612;7.278;2024-03-06T00:52:11;101998.00;;;4.77;100.00
5996;BME280;3026;53.612;7.278;2024-03-06T00:54:39;101997.00;;;4.78;100.00
5996;BME280;3026;53.612;7.278;2024-03-06T00:57:09;102002.31;;;4.79;100.00
5996;BME280;3026;53.612;7.278;2024-03-06T00:59:36;102003.28;;;4.78;100.00
5996;BME280;3026;53.612;7.278;2024-03-06T01:02:04;101998.75;;;4.79;100.00
5996;BME280;3026;53.612;7.278;2024-03-06T01:04:31;102005.88;;;4.80;100.00
5996;BME280;3026;53.612;7.278;2024-03-06T01:06:58;102002.19;;;4.81;100.00
5996;BME280;3026;53.612;7.278;2024-03-06T01:09:27;102001.34;;;4.80;100.00
5996;BME280;3026;53.612;7.278;2024-03-06T01:11:54;102007.59;;;4.81;100.00
5996;BME280;3026;53.612;7.278;2024-03-06T01:14:22;102005.88;;;4.80;100.00
5996;BME280;3026;53.612;7.278;2024-03-06T01:16:49;102013.00;;;4.81;100.00
5996;BME280;3026;53.612;7.278;2024-03-06T01:19:17;102009.56;;;4.79;100.00
5996;BME280;3026;53.612;7.278;2024-03-06T01:21:44;102013.00;;;4.81;100.00
5996;BME280;3026;53.612;7.278;2024-03-06T01:24:12;102010.31;;;4.81;100.00
5996;BME280;3026;53.612;7.278;2024-03-06T01:26:41;102013.00;;;4.81;100.00
5996;BME280;3026;53.612;7.278;2024-03-06T01:29:08;102012.25;;;4.79;100.00
5996;BME280;3026;53.612;7.278;2024-03-06T01:31:35;102015.81;;;4.79;100.00
5996;BME280;3026;53.612;7.278;2024-03-06T01:34:04;102014.84;;;4.80;100.00
5996;BME280;3026;53.612;7.278;2024-03-06T01:36:31;102007.72;;;4.79;100.00
5996;BME280;3026;53.612;7.278;2024-03-06T01:39:00;102009.56;;;4.79;100.00
5996;BME280;3026;53.612;7.278;2024-03-06T01:41:27;102004.16;;;4.79;100.00
5996;BME280;3026;53.612;7.278;2024-03-06T01:43:56;101996.03;;;4.79;100.00
5996;BME280;3026;53.612;7.278;2024-03-06T01:46:23;101993.56;;;4.76;100.00
5996;BME280;3026;53.612;7.278;2024-03-06T01:48:51;102000.88;;;4.74;100.00
5996;BME280;3026;53.612;7.278;2024-03-06T01:51:18;102000.88;;;4.74;100.00
5996;BME280;3026;53.612;7.278;2024-03-06T01:53:45;102004.56;;;4.73;100.00
5996;BME280;3026;53.612;7.278;2024-03-06T01:56:12;102005.53;;;4.72;100.00
5996;BME280;3026;53.612;7.278;2024-03-06T01:58:45;102009.97;;;4.73;100.00
5996;BME280;3026;53.612;7.278;2024-03-06T02:01:16;102005.41;;;4.73;100.00
5996;BME280;3026;53.612;7.278;2024-03-06T02:03:43;102010.94;;;4.72;100.00
5996;BME280;3026;53.612;7.278;2024-03-06T02:06:14;102004.56;;;4.73;100.00
5996;BME280;3026;53.612;7.278;2024-03-06T02:08:45;102005.53;;;4.72;100.00
5996;BME280;3026;53.612;7.278;2024-03-06T02:11:13;102009.09;;;4.72;100.00
5996;BME280;3026;53.612;7.278;2024-03-06T02:13:42;102012.78;;;4.71;100.00
5996;BME280;3026;53.612;7.278;2024-03-06T02:16:11;102013.63;;;4.72;100.00
5996;BME280;3026;53.612;7.278;2024-03-06T02:18:51;102008.22;;;4.72;100.00
5996;BME280;3026;53.612;7.278;2024-03-06T02:21:21;102024.44;;;4.72;100.00
5996;BME280;3026;53.612;7.278;2024-03-06T02:23:52;102024.44;;;4.72;100.00
5996;BME280;3026;53.612;7.278;2024-03-06T02:26:22;102024.44;;;4.72;100.00
5996;BME280;3026;53.612;7.278;2024-03-06T02:28:53;102011.91;;;4.71;100.00
5996;BME280;3026;53.612;7.278;2024-03-06T02:31:21;102015.38;;;4.73;100.00
5996;BME280;3026;53.612;7.278;2024-03-06T02:33:50;102027.03;;;4.73;100.00
5996;BME280;3026;53.612;7.278;2024-03-06T02:36:17;102017.09;;;4.74;100.00
5996;BME280;3026;53.612;7.278;2024-03-06T02:38:48;102022.50;;;4.74;100.00
5996;BME280;3026;53.612;7.278;2024-03-06T02:41:15;102017.09;;;4.74;100.00
5996;BME280;3026;53.612;7.278;2024-03-06T02:43:43;102017.94;;;4.74;100.00
5996;BME280;3026;53.612;7.278;2024-03-06T02:46:10;102011.91;;;4.71;100.00
5996;BME280;3026;53.612;7.278;2024-03-06T02:48:39;102017.31;;;4.71;100.00
5996;BME280;3026;53.612;7.278;2024-03-06T02:51:06;102020.78;;;4.73;100.00
5996;BME280;3026;53.612;7.278;2024-03-06T02:53:33;102017.19;;;4.72;100.00
5996;BME280;3026;53.612;7.278;2024-03-06T02:56:02;102013.63;;;4.72;100.00
5996;BME280;3026;53.612;7.278;2024-03-06T02:58:30;102018.06;;;4.73;100.00
5996;BME280;3026;53.612;7.278;2024-03-06T03:00:57;102019.03;;;4.72;100.00
5996;BME280;3026;53.612;7.278;2024-03-06T03:03:24;102019.03;;;4.72;100.00
5996;BME280;3026;53.612;7.278;2024-03-06T03:05:51;102017.31;;;4.71;100.00
5996;BME280;3026;53.612;7.278;2024-03-06T03:08:24;102013.63;;;4.72;100.00
5996;BME280;3026;53.612;7.278;2024-03-06T03:10:51;102020.78;;;4.73;100.00
5996;BME280;3026;53.612;7.278;2024-03-06T03:13:22;102018.84;;;4.75;100.00
5996;BME280;3026;53.612;7.278;2024-03-06T03:15:49;102022.50;;;4.74;100.00
5996;BME280;3026;53.612;7.278;2024-03-06T03:18:17;102023.34;;;4.74;100.00
5996;BME280;3026;53.612;7.278;2024-03-06T03:20:44;102019.72;;;4.75;100.00
5996;BME280;3026;53.612;7.278;2024-03-06T03:23:13;102025.97;;;4.76;100.00
5996;BME280;3026;53.612;7.278;2024-03-06T03:25:43;102033.13;;;4.77;100.00
5996;BME280;3026;53.612;7.278;2024-03-06T03:28:11;102029.66;;;4.75;100.00
5996;BME280;3026;53.612;7.278;2024-03-06T03:30:40;102035.06;;;4.75;100.00
5996;BME280;3026;53.612;7.278;2024-03-06T03:33:10;102033.31;;;4.74;100.00
5996;BME280;3026;53.612;7.278;2024-03-06T03:35:39;102029.84;;;4.72;100.00
5996;BME280;3026;53.612;7.278;2024-03-06T03:38:06;102038.94;;;4.71;100.00
5996;BME280;3026;53.612;7.278;2024-03-06T03:40:33;102026.38;;;4.69;100.00
5996;BME280;3026;53.612;7.278;2024-03-06T03:43:01;102039.91;;;4.69;100.00
5996;BME280;3026;53.612;7.278;2024-03-06T03:45:32;102038.94;;;4.71;100.00
5996;BME280;3026;53.612;7.278;2024-03-06T03:48:05;102033.53;;;4.71;100.00
5996;BME280;3026;53.612;7.278;2024-03-06T03:50:33;102038.94;;;4.71;100.00
5996;BME280;3026;53.612;7.278;2024-03-06T03:53:00;102036.13;;;4.72;100.00
5996;BME280;3026;53.612;7.278;2024-03-06T03:55:27;102043.34;;;4.72;100.00
5996;BME280;3026;53.612;7.278;2024-03-06T03:57:55;102042.38;;;4.73;100.00
5996;BME280;3026;53.612;7.278;2024-03-06T04:00:22;102045.94;;;4.73;100.00
5996;BME280;3026;53.612;7.278;2024-03-06T04:02:50;102044.13;;;4.74;100.00
5996;BME280;3026;53.612;7.278;2024-03-06T04:05:19;102044.13;;;4.74;100.00
5996;BME280;3026;53.612;7.278;2024-03-06T04:07:47;102058.59;;;4.73;100.00
5996;BME280;3026;53.612;7.278;2024-03-06T04:10:16;102057.72;;;4.72;100.00
5996;BME280;3026;53.612;7.278;2024-03-06T04:12:45;102064.97;;;4.72;100.00
5996;BME280;3026;53.612;7.278;2024-03-06T04:15:13;102058.81;;;4.69;100.00
5996;BME280;3026;53.612;7.278;2024-03-06T04:17:40;102064.22;;;4.69;100.00
5996;BME280;3026;53.612;7.278;2024-03-06T04:20:11;102067.91;;;4.68;100.00
5996;BME280;3026;53.612;7.278;2024-03-06T04:22:40;102070.59;;;4.68;100.00
5996;BME280;3026;53.612;7.278;2024-03-06T04:25:07;102072.44;;;4.68;100.00
5996;BME280;3026;53.612;7.278;2024-03-06T04:27:35;102075.25;;;4.66;100.00
5996;BME280;3026;53.612;7.278;2024-03-06T04:30:04;102074.38;;;4.66;100.00
5996;BME280;3026;53.612;7.278;2024-03-06T04:32:31;102077.19;;;4.64;100.00
5996;BME280;3026;53.612;7.278;2024-03-06T04:34:59;102077.19;;;4.64;100.00
5996;BME280;3026;53.612;7.278;2024-03-06T04:37:26;102075.47;;;4.63;100.00
5996;BME280;3026;53.612;7.278;2024-03-06T04:39:56;102082.59;;;4.64;100.00
5996;BME280;3026;53.612;7.278;2024-03-06T04:42:30;102082.59;;;4.64;100.00
5996;BME280;3026;53.612;7.278;2024-03-06T04:44:58;102086.28;;;4.63;100.00
5996;BME280;3026;53.612;7.278;2024-03-06T04:47:25;102083.75;;;4.60;100.00
5996;BME280;3026;53.612;7.278;2024-03-06T04:49:52;102089.03;;;4.62;100.00
5996;BME280;3026;53.612;7.278;2024-03-06T04:52:20;102097.16;;;4.62;100.00
5996;BME280;3026;53.612;7.278;2024-03-06T04:54:48;102092.72;;;4.61;100.00
5996;BME280;3026;53.612;7.278;2024-03-06T04:57:17;102102.66;;;4.60;100.00
5996;BME280;3026;53.612;7.278;2024-03-06T04:59:44;102102.66;;;4.60;100.00
5996;BME280;3026;53.612;7.278;2024-03-06T05:02:13;102100.94;;;4.59;100.00
5996;BME280;3026;53.612;7.278;2024-03-06T05:04:41;102105.47;;;4.59;100.00
5996;BME280;3026;53.612;7.278;2024-03-06T05:07:14;102104.59;;;4.58;100.00
5996;BME280;3026;53.612;7.278;2024-03-06T05:09:40;102107.41;;;4.57;100.00
5996;BME280;3026;53.612;7.278;2024-03-06T05:12:13;102103.97;;;4.55;100.00
5996;BME280;3026;53.612;7.278;2024-03-06T05:14:42;102119.31;;;4.54;100.00
5996;BME280;3026;53.612;7.278;2024-03-06T05:17:13;102112.16;;;4.53;100.00
5996;BME280;3026;53.612;7.278;2024-03-06T05:19:40;102108.50;;;4.54;100.00
5996;BME280;3026;53.612;7.278;2024-03-06T05:22:07;102119.19;;;4.56;100.00
5996;BME280;3026;53.612;7.278;2024-03-06T05:24:34;102115.63;;;4.55;100.00
5996;BME280;3026;53.612;7.278;2024-03-06T05:27:02;102121.03;;;4.55;100.00
5996;BME280;3026;53.612;7.278;2024-03-06T05:29:29;102125.56;;;4.55;100.00
5996;BME280;3026;53.612;7.278;2024-03-06T05:31:59;102130.09;;;4.54;100.00
5996;BME280;3026;53.612;7.278;2024-03-06T05:34:27;102131.06;;;4.53;100.00
5996;BME280;3026;53.612;7.278;2024-03-06T05:36:56;102130.09;;;4.54;100.00
5996;BME280;3026;53.612;7.278;2024-03-06T05:39:23;102133.66;;;4.55;100.00
5996;BME280;3026;53.612;7.278;2024-03-06T05:41:54;102141.56;;;4.58;100.00
5996;BME280;3026;53.612;7.278;2024-03-06T05:44:24;102140.69;;;4.57;100.00
5996;BME280;3026;53.612;7.278;2024-03-06T05:46:53;102140.69;;;4.57;100.00
5996;BME280;3026;53.612;7.278;2024-03-06T05:49:24;102147.06;;;4.56;100.00
5996;BME280;3026;53.612;7.278;2024-03-06T05:51:53;102144.38;;;4.56;100.00
5996;BME280;3026;53.612;7.278;2024-03-06T05:54:21;102144.59;;;4.53;100.00
5996;BME280;3026;53.612;7.278;2024-03-06T05:56:48;102155.38;;;4.53;100.00
5996;BME280;3026;53.612;7.278;2024-03-06T05:59:17;102149.97;;;4.53;100.00
5996;BME280;3026;53.612;7.278;2024-03-06T06:01:44;102161.75;;;4.52;100.00
5996;BME280;3026;53.612;7.278;2024-03-06T06:04:12;102149.19;;;4.51;100.00
5996;BME280;3026;53.612;7.278;2024-03-06T06:06:41;102154.53;;;4.53;100.00
5996;BME280;3026;53.612;7.278;2024-03-06T06:09:08;102157.28;;;4.51;100.00
5996;BME280;3026;53.612;7.278;2024-03-06T06:11:41;102159.06;;;4.52;100.00
5996;BME280;3026;53.612;7.278;2024-03-06T06:14:10;102162.69;;;4.51;100.00
5996;BME280;3026;53.612;7.278;2024-03-06T06:16:38;102171.59;;;4.53;100.00
5996;BME280;3026;53.612;7.278;2024-03-06T06:19:06;102173.31;;;4.54;100.00
5996;BME280;3026;53.612;7.278;2024-03-06T06:21:33;102177.75;;;4.55;100.00
5996;BME280;3026;53.612;7.278;2024-03-06T06:24:03;102172.34;;;4.55;100.00
5996;BME280;3026;53.612;7.278;2024-03-06T06:26:30;102174.09;;;4.56;100.00
5996;BME280;3026;53.612;7.278;2024-03-06T06:28:58;102172.34;;;4.55;100.00
5996;BME280;3026;53.612;7.278;2024-03-06T06:31:31;102175.06;;;4.55;100.00
5996;BME280;3026;53.612;7.278;2024-03-06T06:33:58;102176.13;;;4.53;100.00
5996;BME280;3026;53.612;7.278;2024-03-06T06:36:26;102182.41;;;4.53;100.00
5996;BME280;3026;53.612;7.278;2024-03-06T06:38:54;102182.41;;;4.53;100.00
5996;BME280;3026;53.612;7.278;2024-03-06T06:41:24;102187.81;;;4.53;100.00
5996;BME280;3026;53.612;7.278;2024-03-06T06:43:52;102200.34;;;4.54;100.00
5996;BME280;3026;53.612;7.278;2024-03-06T06:46:19;102196.88;;;4.52;100.00
5996;BME280;3026;53.612;7.278;2024-03-06T06:48:46;102209.41;;;4.53;100.00
5996;BME280;3026;53.612;7.278;2024-03-06T06:51:14;102208.44;;;4.54;100.00
5996;BME280;3026;53.612;7.278;2024-03-06T06:53:42;102206.59;;;4.55;100.00
5996;BME280;3026;53.612;7.278;2024-03-06T06:56:11;102220.97;;;4.55;100.00
5996;BME280;3026;53.612;7.278;2024-03-06T06:58:40;102230.59;;;4.59;100.00
5996;BME280;3026;53.612;7.278;2024-03-06T07:01:09;102229.63;;;4.60;100.00
5996;BME280;3026;53.612;7.278;2024-03-06T07:03:36;102230.41;;;4.62;100.00
5996;BME280;3026;53.612;7.278;2024-03-06T07:06:05;102229.25;;;4.66;100.00
5996;BME280;3026;53.612;7.278;2024-03-06T07:08:32;102238.22;;;4.67;100.00
5996;BME280;3026;53.612;7.278;2024-03-06T07:10:59;102240.81;;;4.68;100.00
5996;BME280;3026;53.612;7.278;2024-03-06T07:13:27;102247.97;;;4.69;100.00
5996;BME280;3026;53.612;7.278;2024-03-06T07:15:55;102250.66;;;4.69;100.00
5996;BME280;3026;53.612;7.278;2024-03-06T07:18:22;102253.34;;;4.69;100.00
5996;BME280;3026;53.612;7.278;2024-03-06T07:20:57;102259.63;;;4.70;100.00
5996;BME280;3026;53.612;7.278;2024-03-06T07:23:25;102262.22;;;4.72;100.00
5996;BME280;3026;53.612;7.278;2024-03-06T07:25:52;102263.97;;;4.73;100.00
5996;BME280;3026;53.612;7.278;2024-03-06T07:28:19;102256.66;;;4.75;100.00
5996;BME280;3026;53.612;7.278;2024-03-06T07:30:48;102261.84;;;4.78;100.00
5996;BME280;3026;53.612;7.278;2024-03-06T07:33:17;102268.00;;;4.80;100.00
5996;BME280;3026;53.612;7.278;2024-03-06T07:35:45;102264.44;;;4.79;100.00
5996;BME280;3026;53.612;7.278;2024-03-06T07:38:12;102273.19;;;4.83;100.00
5996;BME280;3026;53.612;7.278;2024-03-06T07:40:40;102273.97;;;4.85;100.00
5996;BME280;3026;53.612;7.278;2024-03-06T07:43:08;102270.28;;;4.86;100.00
5996;BME280;3026;53.612;7.278;2024-03-06T07:45:35;102276.50;;;4.88;100.00
5996;BME280;3026;53.612;7.278;2024-03-06T07:48:02;102277.91;;;4.93;100.00
5996;BME280;3026;53.612;7.278;2024-03-06T07:50:31;102278.56;;;4.97;100.00
5996;BME280;3026;53.612;7.278;2024-03-06T07:52:58;102276.44;;;5.02;100.00
5996;BME280;3026;53.612;7.278;2024-03-06T07:55:25;102279.91;;;5.04;100.00
5996;BME280;3026;53.612;7.278;2024-03-06T07:57:53;102277.00;;;5.07;100.00
5996;BME280;3026;53.612;7.278;2024-03-06T08:00:20;102291.25;;;5.09;100.00
5996;BME280;3026;53.612;7.278;2024-03-06T08:02:48;102292.25;;;5.08;100.00
5996;BME280;3026;53.612;7.278;2024-03-06T08:05:16;102293.78;;;5.12;100.00
5996;BME280;3026;53.612;7.278;2024-03-06T08:07:45;102304.59;;;5.12;100.00
5996;BME280;3026;53.612;7.278;2024-03-06T08:10:12;102299.97;;;5.14;100.00
5996;BME280;3026;53.612;7.278;2024-03-06T08:12:40;102296.94;;;5.19;100.00
5996;BME280;3026;53.612;7.278;2024-03-06T08:15:10;102312.13;;;5.21;100.00
5996;BME280;3026;53.612;7.278;2024-03-06T08:17:41;102305.72;;;5.22;100.00
5996;BME280;3026;53.612;7.278;2024-03-06T08:20:12;102307.25;;;5.26;100.00
5996;BME280;3026;53.612;7.278;2024-03-06T08:22:41;102309.84;;;5.28;100.00
5996;BME280;3026;53.612;7.278;2024-03-06T08:25:10;102310.72;;;5.28;100.00
5996;BME280;3026;53.612;7.278;2024-03-06T08:27:41;102316.13;;;5.28;100.00
5996;BME280;3026;53.612;7.278;2024-03-06T08:30:09;102317.84;;;5.30;100.00
5996;BME280;3026;53.612;7.278;2024-03-06T08:32:38;102317.84;;;5.30;100.00
5996;BME280;3026;53.612;7.278;2024-03-06T08:35:08;102317.00;;;5.29;100.00
5996;BME280;3026;53.612;7.278;2024-03-06T08:37:38;102314.00;;;5.34;100.00
5996;BME280;3026;53.612;7.278;2024-03-06T08:40:06;102320.81;;;5.39;100.00
5996;BME280;3026;53.612;7.278;2024-03-06T08:42:38;102322.44;;;5.42;100.00
5996;BME280;3026;53.612;7.278;2024-03-06T08:45:06;102323.00;;;5.47;100.00
5996;BME280;3026;53.612;7.278;2024-03-06T08:47:35;102326.38;;;5.50;100.00
5996;BME280;3026;53.612;7.278;2024-03-06T08:50:02;102327.03;;;5.54;100.00
5996;BME280;3026;53.612;7.278;2024-03-06T08:52:30;102323.34;;;5.55;100.00
5996;BME280;3026;53.612;7.278;2024-03-06T08:54:58;102321.44;;;5.57;100.00
5996;BME280;3026;53.612;7.278;2024-03-06T08:57:26;102316.78;;;5.59;100.00
5996;BME280;3026;53.612;7.278;2024-03-06T08:59:55;102321.00;;;5.63;100.00
5996;BME280;3026;53.612;7.278;2024-03-06T09:02:25;102324.47;;;5.65;100.00
5996;BME280;3026;53.612;7.278;2024-03-06T09:04:52;102326.88;;;5.70;100.00
5996;BME280;3026;53.612;7.278;2024-03-06T09:07:20;102327.09;;;5.79;100.00
5996;BME280;3026;53.612;7.278;2024-03-06T09:09:49;102338.41;;;5.99;100.00
5996;BME280;3026;53.612;7.278;2024-03-06T09:12:22;102345.69;;;6.11;100.00
5996;BME280;3026;53.612;7.278;2024-03-06T09:14:51;102344.50;;;6.15;100.00
5996;BME280;3026;53.612;7.278;2024-03-06T09:17:21;102346.34;;;6.27;100.00
5996;BME280;3026;53.612;7.278;2024-03-06T09:19:48;102350.16;;;6.37;100.00
5996;BME280;3026;53.612;7.278;2024-03-06T09:22:23;102339.50;;;6.47;100.00
5996;BME280;3026;53.612;7.278;2024-03-06T09:24:50;102347.41;;;6.63;100.00
5996;BME280;3026;53.612;7.278;2024-03-06T09:27:22;102355.03;;;6.94;100.00
5996;BME280;3026;53.612;7.278;2024-03-06T09:29:49;102356.97;;;7.18;100.00
5996;BME280;3026;53.612;7.278;2024-03-06T09:32:16;102357.19;;;7.39;100.00
5996;BME280;3026;53.612;7.278;2024-03-06T09:34:46;102363.31;;;7.53;100.00
5996;BME280;3026;53.612;7.278;2024-03-06T09:37:17;102358.19;;;7.73;100.00
5996;BME280;3026;53.612;7.278;2024-03-06T09:39:44;102363.97;;;7.92;100.00
5996;BME280;3026;53.612;7.278;2024-03-06T09:42:13;102365.34;;;8.09;100.00
5996;BME280;3026;53.612;7.278;2024-03-06T09:44:41;102373.53;;;8.20;100.00
5996;BME280;3026;53.612;7.278;2024-03-06T09:47:13;102363.81;;;8.29;100.00
5996;BME280;3026;53.612;7.278;2024-03-06T09:49:41;102370.56;;;8.47;100.00
5996;BME280;3026;53.612;7.278;2024-03-06T09:52:12;102372.03;;;8.51;100.00
5996;BME280;3026;53.612;7.278;2024-03-06T09:54:40;102372.66;;;8.55;100.00
5996;BME280;3026;53.612;7.278;2024-03-06T09:57:08;102374.28;;;8.68;100.00
5996;BME280;3026;53.612;7.278;2024-03-06T09:59:37;102370.06;;;8.75;100.00
5996;BME280;3026;53.612;7.278;2024-03-06T10:02:19;102378.75;;;8.81;100.00
5996;BME280;3026;53.612;7.278;2024-03-06T10:04:51;102383.41;;;8.90;100.00
5996;BME280;3026;53.612;7.278;2024-03-06T10:07:20;102389.59;;;9.03;100.00
5996;BME280;3026;53.612;7.278;2024-03-06T10:09:47;102392.19;;;9.27;100.00
5996;BME280;3026;53.612;7.278;2024-03-06T10:12:17;102378.16;;;9.31;100.00
5996;BME280;3026;53.612;7.278;2024-03-06T10:14:49;102391.25;;;9.38;100.00
5996;BME280;3026;53.612;7.278;2024-03-06T10:17:19;102395.59;;;9.40;100.00
5996;BME280;3026;53.612;7.278;2024-03-06T10:19:49;102394.19;;;9.57;100.00
5996;BME280;3026;53.612;7.278;2024-03-06T10:22:18;102403.03;;;9.81;100.00
5996;BME280;3026;53.612;7.278;2024-03-06T10:24:46;102404.84;;;9.92;100.00
5996;BME280;3026;53.612;7.278;2024-03-06T10:27:17;102405.38;;;9.86;100.00
5996;BME280;3026;53.612;7.278;2024-03-06T10:29:45;102405.97;;;9.89;100.00
5996;BME280;3026;53.612;7.278;2024-03-06T10:32:16;102406.38;;;9.85;100.00
5996;BME280;3026;53.612;7.278;2024-03-06T10:34:46;102408.28;;;9.94;100.00
5996;BME280;3026;53.612;7.278;2024-03-06T10:37:15;102401.47;;;10.00;100.00
5996;BME280;3026;53.612;7.278;2024-03-06T10:39:42;102417.28;;;10.06;100.00
5996;BME280;3026;53.612;7.278;2024-03-06T10:42:13;102415.47;;;10.27;100.00
5996;BME280;3026;53.612;7.278;2024-03-06T10:44:48;102422.66;;;10.28;100.00
5996;BME280;3026;53.612;7.278;2024-03-06T10:47:19;102420.75;;;10.08;100.00
5996;BME280;3026;53.612;7.278;2024-03-06T10:49:47;102440.75;;;9.97;100.00
5996;BME280;3026;53.612;7.278;2024-03-06T10:52:15;102439.25;;;9.93;100.00
5996;BME280;3026;53.612;7.278;2024-03-06T10:54:46;102433.25;;;9.78;100.00
5996;BME280;3026;53.612;7.278;2024-03-06T10:57:17;102440.75;;;9.54;100.00
5996;BME280;3026;53.612;7.278;2024-03-06T10:59:47;102442.13;;;9.37;100.00
5996;BME280;3026;53.612;7.278;2024-03-06T11:02:16;102431.38;;;9.24;100.00
5996;BME280;3026;53.612;7.278;2024-03-06T11:04:45;102445.75;;;9.15;100.00
5996;BME280;3026;53.612;7.278;2024-03-06T11:07:13;102442.53;;;9.10;100.00
5996;BME280;3026;53.612;7.278;2024-03-06T11:09:40;102447.50;;;9.05;100.00
5996;BME280;3026;53.612;7.278;2024-03-06T11:12:08;102450.44;;;9.02;100.00
5996;BME280;3026;53.612;7.278;2024-03-06T11:14:38;102448.47;;;9.04;100.00
5996;BME280;3026;53.612;7.278;2024-03-06T11:17:09;102448.09;;;9.09;100.00
5996;BME280;3026;53.612;7.278;2024-03-06T11:23:02;102453.28;;;9.00;100.00
5996;BME280;3026;53.612;7.278;2024-03-06T11:25:56;102456.63;;;8.93;100.00
5996;BME280;3026;53.612;7.278;2024-03-06T11:28:25;102452.19;;;8.92;100.00
5996;BME280;3026;53.612;7.278;2024-03-06T11:30:59;102458.09;;;8.86;100.00
5996;BME280;3026;53.612;7.278;2024-03-06T11:33:37;102455.84;;;8.80;100.00
5996;BME280;3026;53.612;7.278;2024-03-06T11:36:19;102455.13;;;8.77;100.00
5996;BME280;3026;53.612;7.278;2024-03-06T11:38:51;102456.84;;;8.78;100.00
5996;BME280;3026;53.612;7.278;2024-03-06T11:41:21;102454.91;;;8.81;100.00
5996;BME280;3026;53.612;7.278;2024-03-06T11:43:49;102450.31;;;8.81;100.00
5996;BME280;3026;53.612;7.278;2024-03-06T11:46:20;102456.63;;;8.82;100.00
5996;BME280;3026;53.612;7.278;2024-03-06T11:48:55;102455.63;;;8.83;100.00
5996;BME280;3026;53.612;7.278;2024-03-06T11:51:26;102458.09;;;8.86;100.00
5996;BME280;3026;53.612;7.278;2024-03-06T11:53:53;102461.81;;;8.85;100.00
5996;BME280;3026;53.612;7.278;2024-03-06T11:56:21;102460.69;;;8.87;100.00
5996;BME280;3026;53.612;7.278;2024-03-06T11:58:48;102460.56;;;8.89;100.00
5996;BME280;3026;53.612;7.278;2024-03-06T12:01:15;102460.56;;;9.00;100.00
5996;BME280;3026;53.612;7.278;2024-03-06T12:03:47;102450.69;;;9.10;100.00
5996;BME280;3026;53.612;7.278;2024-03-06T12:06:15;102455.66;;;9.16;100.00
5996;BME280;3026;53.612;7.278;2024-03-06T12:08:44;102454.88;;;9.25;100.00
5996;BME280;3026;53.612;7.278;2024-03-06T12:11:13;102462.09;;;9.26;100.00
5996;BME280;3026;53.612;7.278;2024-03-06T12:13:41;102450.19;;;9.39;100.00
5996;BME280;3026;53.612;7.278;2024-03-06T12:16:09;102454.72;;;9.60;100.00
5996;BME280;3026;53.612;7.278;2024-03-06T12:18:37;102459.16;;;9.73;100.00
5996;BME280;3026;53.612;7.278;2024-03-06T12:21:10;102454.41;;;9.86;100.00
5996;BME280;3026;53.612;7.278;2024-03-06T12:23:39;102460.03;;;10.05;100.00
5996;BME280;3026;53.612;7.278;2024-03-06T12:26:09;102462.09;;;10.13;100.00
5996;BME280;3026;53.612;7.278;2024-03-06T12:28:38;102459.22;;;10.26;100.00
5996;BME280;3026;53.612;7.278;2024-03-06T12:31:06;102462.19;;;10.34;100.00
5996;BME280;3026;53.612;7.278;2024-03-06T12:33:35;102457.84;;;10.52;100.00
5996;BME280;3026;53.612;7.278;2024-03-06T12:36:06;102467.31;;;10.69;100.00
5996;BME280;3026;53.612;7.278;2024-03-06T12:38:37;102464.50;;;10.80;100.00
5996;BME280;3026;53.612;7.278;2024-03-06T12:41:05;102468.16;;;10.90;100.00
5996;BME280;3026;53.612;7.278;2024-03-06T12:43:32;102471.06;;;10.98;100.00
5996;BME280;3026;53.612;7.278;2024-03-06T12:46:00;102466.50;;;11.08;100.00
5996;BME280;3026;53.612;7.278;2024-03-06T12:48:28;102467.69;;;11.16;100.00
5996;BME280;3026;53.612;7.278;2024-03-06T12:50:56;102460.03;;;11.40;100.00
5996;BME280;3026;53.612;7.278;2024-03-06T12:53:30;102451.41;;;11.45;100.00
5996;BME280;3026;53.612;7.278;2024-03-06T12:56:00;102460.34;;;11.56;100.00
5996;BME280;3026;53.612;7.278;2024-03-06T12:58:27;102457.06;;;11.62;100.00
5996;BME280;3026;53.612;7.278;2024-03-06T13:00:57;102462.72;;;11.71;100.00
5996;BME280;3026;53.612;7.278;2024-03-06T13:03:24;102466.34;;;11.81;100.00
5996;BME280;3026;53.612;7.278;2024-03-06T13:05:51;102455.56;;;11.89;100.00
5996;BME280;3026;53.612;7.278;2024-03-06T13:08:18;102459.63;;;12.04;100.00
5996;BME280;3026;53.612;7.278;2024-03-06T13:10:45;102457.63;;;12.16;100.00
5996;BME280;3026;53.612;7.278;2024-03-06T13:13:14;102448.97;;;12.40;100.00
5996;BME280;3026;53.612;7.278;2024-03-06T13:15:42;102460.91;;;12.48;100.00
5996;BME280;3026;53.612;7.278;2024-03-06T13:18:09;102459.47;;;12.54;100.00
5996;BME280;3026;53.612;7.278;2024-03-06T13:20:36;102466.81;;;12.63;100.00